createdAt,value
2023-01-08T00:00:54.350Z,1006.20
2023-01-08T00:01:54.226Z,1006.21
2023-01-08T00:02:54.322Z,1006.24
2023-01-08T00:03:54.288Z,1006.21
2023-01-08T00:04:54.121Z,1006.24
2023-01-08T00:05:54.189Z,1006.18
2023-01-08T00:06:54.053Z,1006.18
2023-01-08T00:07:54.096Z,1006.18
2023-01-08T00:08:54.008Z,1006.22
2023-01-08T00:09:53.960Z,1006.24
2023-01-08T00:10:53.927Z,1006.20
2023-01-08T00:11:53.997Z,1006.18
2023-01-08T00:12:53.863Z,1006.12
2023-01-08T00:13:53.825Z,1006.11
2023-01-08T00:14:53.781Z,1006.04
2023-01-08T00:15:53.744Z,1006.07
2023-01-08T00:16:53.809Z,1006.00
2023-01-08T00:17:53.744Z,1005.99
2023-01-08T00:18:53.663Z,1005.97
2023-01-08T00:19:53.598Z,1005.96
2023-01-08T00:20:53.577Z,1005.92
2023-01-08T00:21:53.533Z,1005.90
2023-01-08T00:22:53.513Z,1005.81
2023-01-08T00:23:53.608Z,1005.82
2023-01-08T00:24:53.441Z,1005.80
2023-01-08T00:25:53.412Z,1005.74
2023-01-08T00:26:53.366Z,1005.77
2023-01-08T00:27:53.346Z,1005.77
2023-01-08T00:28:53.291Z,1005.76
2023-01-08T00:29:54.093Z,1005.81
2023-01-08T00:30:53.312Z,1005.78
2023-01-08T00:31:53.181Z,1005.69
2023-01-08T00:32:53.168Z,1005.68
2023-01-08T00:33:53.116Z,1005.69
2023-01-08T00:34:53.080Z,1005.69
2023-01-08T00:35:53.145Z,1005.72
2023-01-08T00:36:53.007Z,1005.73
2023-01-08T00:37:52.992Z,1005.72
2023-01-08T00:38:52.967Z,1005.73
2023-01-08T00:39:52.984Z,1005.73
2023-01-08T00:40:52.942Z,1005.73
2023-01-08T00:41:52.841Z,1005.65
2023-01-08T00:42:52.864Z,1005.61
2023-01-08T00:43:52.802Z,1005.61
2023-01-08T00:44:52.732Z,1005.68
2023-01-08T00:45:52.811Z,1005.70
2023-01-08T00:46:52.750Z,1005.66
2023-01-08T00:47:52.652Z,1005.61
2023-01-08T00:48:52.687Z,1005.61
2023-01-08T00:49:52.563Z,1005.61
2023-01-08T00:50:52.536Z,1005.59
2023-01-08T00:51:52.488Z,1005.57
2023-01-08T00:52:52.484Z,1005.54
2023-01-08T00:53:52.513Z,1005.54
2023-01-08T00:54:52.413Z,1005.52
2023-01-08T00:55:52.519Z,1005.51
2023-01-08T00:56:52.542Z,1005.54
2023-01-08T00:57:52.540Z,1005.49
2023-01-08T00:58:52.461Z,1005.44
2023-01-08T00:59:52.520Z,1005.45
2023-01-08T01:00:52.232Z,1005.50
2023-01-08T01:01:52.283Z,1005.54
2023-01-08T01:02:52.114Z,1005.52
2023-01-08T01:03:52.201Z,1005.54
2023-01-08T01:04:52.060Z,1005.50
2023-01-08T01:05:52.076Z,1005.49
2023-01-08T01:06:52.100Z,1005.47
2023-01-08T01:07:51.932Z,1005.50
2023-01-08T01:08:51.901Z,1005.51
2023-01-08T01:09:51.885Z,1005.47
2023-01-08T01:10:51.900Z,1005.45
2023-01-08T01:11:51.921Z,1005.34
2023-01-08T01:12:51.777Z,1005.39
2023-01-08T01:13:51.767Z,1005.33
2023-01-08T01:14:51.754Z,1005.34
2023-01-08T01:15:54.483Z,1005.30
2023-01-08T01:16:51.715Z,1005.18
2023-01-08T01:17:51.655Z,1005.22
2023-01-08T01:18:51.580Z,1005.23
2023-01-08T01:19:51.587Z,1005.23
2023-01-08T01:20:52.483Z,1005.25
2023-01-08T01:21:51.496Z,1005.26
2023-01-08T01:22:51.976Z,1005.22
2023-01-08T01:23:51.452Z,1005.24
2023-01-08T01:24:51.428Z,1005.28
2023-01-08T01:25:51.366Z,1005.29
2023-01-08T01:26:51.403Z,1005.31
2023-01-08T01:27:51.341Z,1005.29
2023-01-08T01:28:57.967Z,1005.31
2023-01-08T01:29:51.970Z,1005.35
2023-01-08T01:30:51.188Z,1005.31
2023-01-08T01:31:51.119Z,1005.29
2023-01-08T01:32:51.151Z,1005.31
2023-01-08T01:33:51.034Z,1005.35
2023-01-08T01:34:51.010Z,1005.34
2023-01-08T01:35:51.001Z,1005.32
2023-01-08T01:36:50.953Z,1005.31
2023-01-08T01:37:50.911Z,1005.28
2023-01-08T01:38:50.991Z,1005.20
2023-01-08T01:39:50.828Z,1005.21
2023-01-08T01:40:50.844Z,1005.16
2023-01-08T01:41:50.801Z,1005.13
2023-01-08T01:42:50.897Z,1005.11
2023-01-08T01:43:50.891Z,1005.09
2023-01-08T01:44:54.491Z,1005.13
2023-01-08T01:45:50.702Z,1005.21
2023-01-08T01:46:52.477Z,1005.27
2023-01-08T01:47:50.732Z,1005.29
2023-01-08T01:48:50.578Z,1005.25
2023-01-08T01:49:50.541Z,1005.24
2023-01-08T01:50:50.524Z,1005.22
2023-01-08T01:51:50.426Z,1005.18
2023-01-08T01:52:50.513Z,1005.15
2023-01-08T01:53:50.384Z,1005.06
2023-01-08T01:54:50.373Z,1005.03
2023-01-08T01:55:50.291Z,1005.07
2023-01-08T01:56:50.359Z,1005.08
2023-01-08T01:57:50.187Z,1005.11
2023-01-08T01:58:50.249Z,1005.11
2023-01-08T01:59:50.134Z,1005.08
2023-01-08T02:00:50.095Z,1005.15
2023-01-08T02:01:50.228Z,1005.16
2023-01-08T02:02:50.010Z,1005.16
2023-01-08T02:03:50.073Z,1005.09
2023-01-08T02:04:50.011Z,1005.08
2023-01-08T02:05:49.915Z,1004.99
2023-01-08T02:06:49.875Z,1004.96
2023-01-08T02:07:49.839Z,1004.97
2023-01-08T02:08:49.808Z,1004.95
2023-01-08T02:09:49.769Z,1004.91
2023-01-08T02:10:49.843Z,1004.84
2023-01-08T02:11:49.779Z,1004.83
2023-01-08T02:12:49.677Z,1004.87
2023-01-08T02:13:49.638Z,1004.85
2023-01-08T02:14:49.594Z,1004.83
2023-01-08T02:15:49.634Z,1004.84
2023-01-08T02:16:49.602Z,1004.82
2023-01-08T02:17:49.554Z,1004.81
2023-01-08T02:18:49.445Z,1004.86
2023-01-08T02:19:49.412Z,1004.87
2023-01-08T02:20:49.384Z,1004.87
2023-01-08T02:21:49.405Z,1004.83
2023-01-08T02:22:49.389Z,1004.83
2023-01-08T02:23:49.277Z,1004.83
2023-01-08T02:24:49.241Z,1004.76
2023-01-08T02:25:49.199Z,1004.78
2023-01-08T02:26:49.246Z,1004.78
2023-01-08T02:27:49.147Z,1004.78
2023-01-08T02:28:49.159Z,1004.85
2023-01-08T02:29:49.129Z,1004.81
2023-01-08T02:30:49.096Z,1004.77
2023-01-08T02:31:49.064Z,1004.76
2023-01-08T02:32:48.962Z,1004.73
2023-01-08T02:33:48.952Z,1004.71
2023-01-08T02:34:49.164Z,1004.69
2023-01-08T02:35:48.891Z,1004.65
2023-01-08T02:36:48.882Z,1004.64
2023-01-08T02:37:48.823Z,1004.61
2023-01-08T02:38:48.803Z,1004.55
2023-01-08T02:39:48.751Z,1004.55
2023-01-08T02:40:48.753Z,1004.52
2023-01-08T02:41:48.648Z,1004.50
2023-01-08T02:42:48.790Z,1004.46
2023-01-08T02:43:48.668Z,1004.50
2023-01-08T02:44:49.487Z,1004.51
2023-01-08T02:45:48.555Z,1004.55
2023-01-08T02:46:48.547Z,1004.52
2023-01-08T02:47:48.522Z,1004.50
2023-01-08T02:48:48.406Z,1004.47
2023-01-08T02:49:48.449Z,1004.40
2023-01-08T02:50:48.348Z,1004.34
2023-01-08T02:51:48.284Z,1004.30
2023-01-08T02:52:48.312Z,1004.29
2023-01-08T02:53:48.205Z,1004.27
2023-01-08T02:54:48.168Z,1004.26
2023-01-08T02:55:48.140Z,1004.24
2023-01-08T02:56:48.106Z,1004.26
2023-01-08T02:57:48.142Z,1004.27
2023-01-08T02:58:48.083Z,1004.30
2023-01-08T02:59:47.993Z,1004.27
2023-01-08T03:00:48.044Z,1004.26
2023-01-08T03:01:47.973Z,1004.22
2023-01-08T03:02:49.938Z,1004.22
2023-01-08T03:03:47.930Z,1004.23
2023-01-08T03:04:47.814Z,1004.27
2023-01-08T03:05:47.782Z,1004.27
2023-01-08T03:06:47.800Z,1004.17
2023-01-08T03:07:47.711Z,1004.14
2023-01-08T03:08:47.678Z,1004.14
2023-01-08T03:09:47.638Z,1004.19
2023-01-08T03:10:47.610Z,1004.18
2023-01-08T03:11:47.583Z,1004.19
2023-01-08T03:12:47.589Z,1004.26
2023-01-08T03:13:47.506Z,1004.31
2023-01-08T03:14:47.463Z,1004.24
2023-01-08T03:15:47.426Z,1004.24
2023-01-08T03:16:47.466Z,1004.21
2023-01-08T03:17:47.352Z,1004.19
2023-01-08T03:18:47.380Z,1004.15
2023-01-08T03:19:47.345Z,1004.11
2023-01-08T03:20:47.248Z,1004.08
2023-01-08T03:21:47.202Z,1004.07
2023-01-08T03:22:47.176Z,1004.07
2023-01-08T03:23:47.203Z,1004.09
2023-01-08T03:24:47.166Z,1004.12
2023-01-08T03:25:47.090Z,1004.15
2023-01-08T03:26:47.037Z,1004.12
2023-01-08T03:27:47.006Z,1004.17
2023-01-08T03:28:46.973Z,1004.13
2023-01-08T03:29:47.054Z,1004.12
2023-01-08T03:30:46.989Z,1004.13
2023-01-08T03:31:46.850Z,1004.17
2023-01-08T03:32:46.893Z,1004.18
2023-01-08T03:33:46.779Z,1004.19
2023-01-08T03:34:46.762Z,1004.22
2023-01-08T03:35:46.779Z,1004.25
2023-01-08T03:36:46.689Z,1004.23
2023-01-08T03:37:46.709Z,1004.22
2023-01-08T03:38:46.629Z,1004.21
2023-01-08T03:39:46.576Z,1004.24
2023-01-08T03:40:46.552Z,1004.23
2023-01-08T03:41:46.508Z,1004.22
2023-01-08T03:42:46.536Z,1004.15
2023-01-08T03:43:46.438Z,1004.13
2023-01-08T03:44:46.400Z,1004.14
2023-01-08T03:45:46.413Z,1004.13
2023-01-08T03:46:46.322Z,1004.16
2023-01-08T03:47:46.350Z,1004.17
2023-01-08T03:48:46.252Z,1004.19
2023-01-08T03:49:46.254Z,1004.13
2023-01-08T03:50:46.176Z,1004.10
2023-01-08T03:51:46.221Z,1004.11
2023-01-08T03:52:46.188Z,1004.16
2023-01-08T03:53:46.066Z,1004.17
2023-01-08T03:54:46.037Z,1004.14
2023-01-08T03:55:46.003Z,1004.16
2023-01-08T03:56:45.975Z,1004.15
2023-01-08T03:57:45.993Z,1004.13
2023-01-08T03:58:45.894Z,1004.12
2023-01-08T03:59:45.863Z,1004.16
2023-01-08T04:00:45.835Z,1004.10
2023-01-08T04:01:45.858Z,1004.05
2023-01-08T04:02:45.751Z,1004.07
2023-01-08T04:03:45.827Z,1003.99
2023-01-08T04:04:45.745Z,1003.98
2023-01-08T04:05:45.670Z,1003.98
2023-01-08T04:06:45.609Z,1004.01
2023-01-08T04:07:45.647Z,1004.09
2023-01-08T04:08:45.595Z,1004.15
2023-01-08T04:09:45.493Z,1004.14
2023-01-08T04:10:45.465Z,1004.18
2023-01-08T04:11:45.468Z,1004.10
2023-01-08T04:12:45.407Z,1004.11
2023-01-08T04:13:45.357Z,1004.08
2023-01-08T04:14:45.374Z,1004.10
2023-01-08T04:15:45.306Z,1004.07
2023-01-08T04:16:45.272Z,1004.09
2023-01-08T04:17:45.309Z,1004.08
2023-01-08T04:18:45.212Z,1004.06
2023-01-08T04:19:45.241Z,1004.06
2023-01-08T04:20:45.217Z,1003.99
2023-01-08T04:21:46.014Z,1003.92
2023-01-08T04:22:45.141Z,1003.85
2023-01-08T04:23:45.077Z,1003.80
2023-01-08T04:24:45.009Z,1003.81
2023-01-08T04:25:45.026Z,1003.83
2023-01-08T04:26:45.101Z,1003.82
2023-01-08T04:27:44.895Z,1003.91
2023-01-08T04:28:44.898Z,1003.86
2023-01-08T04:29:44.869Z,1003.86
2023-01-08T04:30:45.617Z,1003.86
2023-01-08T04:31:44.730Z,1003.80
2023-01-08T04:32:45.503Z,1003.77
2023-01-08T04:33:44.673Z,1003.77
2023-01-08T04:34:44.617Z,1003.81
2023-01-08T04:35:44.581Z,1003.81
2023-01-08T04:36:44.558Z,1003.85
2023-01-08T04:37:44.501Z,1003.83
2023-01-08T04:38:44.519Z,1003.82
2023-01-08T04:39:44.495Z,1003.86
2023-01-08T04:40:44.397Z,1003.85
2023-01-08T04:41:44.355Z,1003.94
2023-01-08T04:42:44.390Z,1003.89
2023-01-08T04:43:44.298Z,1003.87
2023-01-08T04:44:44.269Z,1003.86
2023-01-08T04:45:44.227Z,1003.84
2023-01-08T04:46:44.219Z,1003.81
2023-01-08T04:47:44.247Z,1003.84
2023-01-08T04:48:44.133Z,1003.81
2023-01-08T04:49:44.072Z,1003.75
2023-01-08T04:50:44.049Z,1003.72
2023-01-08T04:51:44.017Z,1003.75
2023-01-08T04:52:43.963Z,1003.78
2023-01-08T04:53:44.006Z,1003.80
2023-01-08T04:54:43.925Z,1003.82
2023-01-08T04:55:43.932Z,1003.80
2023-01-08T04:56:43.828Z,1003.79
2023-01-08T04:57:43.803Z,1003.81
2023-01-08T04:58:43.820Z,1003.80
2023-01-08T04:59:43.729Z,1003.82
2023-01-08T05:00:43.687Z,1003.85
2023-01-08T05:01:43.731Z,1003.88
2023-01-08T05:02:43.925Z,1003.86
2023-01-08T05:03:43.658Z,1003.82
2023-01-08T05:04:43.558Z,1003.75
2023-01-08T05:05:43.508Z,1003.76
2023-01-08T05:06:43.555Z,1003.76
2023-01-08T05:07:43.455Z,1003.75
2023-01-08T05:08:43.408Z,1003.78
2023-01-08T05:09:43.433Z,1003.73
2023-01-08T05:10:43.334Z,1003.75
2023-01-08T05:11:43.316Z,1003.77
2023-01-08T05:12:43.275Z,1003.76
2023-01-08T05:13:43.236Z,1003.70
2023-01-08T05:14:43.199Z,1003.75
2023-01-08T05:15:43.259Z,1003.69
2023-01-08T05:16:43.134Z,1003.69
2023-01-08T05:17:43.093Z,1003.68
2023-01-08T05:18:43.061Z,1003.68
2023-01-08T05:19:43.022Z,1003.64
2023-01-08T05:20:42.992Z,1003.69
2023-01-08T05:21:43.027Z,1003.71
2023-01-08T05:22:42.957Z,1003.72
2023-01-08T05:23:42.883Z,1003.73
2023-01-08T05:24:42.869Z,1003.70
2023-01-08T05:25:42.817Z,1003.65
2023-01-08T05:26:42.921Z,1003.62
2023-01-08T05:27:42.864Z,1003.60
2023-01-08T05:28:42.723Z,1003.59
2023-01-08T05:29:42.723Z,1003.56
2023-01-08T05:30:42.770Z,1003.55
2023-01-08T05:31:42.605Z,1003.55
2023-01-08T05:32:42.579Z,1003.57
2023-01-08T05:33:42.543Z,1003.56
2023-01-08T05:34:42.510Z,1003.57
2023-01-08T05:35:42.470Z,1003.55
2023-01-08T05:36:42.491Z,1003.53
2023-01-08T05:37:42.420Z,1003.54
2023-01-08T05:38:42.371Z,1003.57
2023-01-08T05:39:42.336Z,1003.58
2023-01-08T05:40:42.294Z,1003.60
2023-01-08T05:41:42.322Z,1003.58
2023-01-08T05:42:42.224Z,1003.58
2023-01-08T05:43:42.277Z,1003.50
2023-01-08T05:44:42.197Z,1003.57
2023-01-08T05:45:42.130Z,1003.50
2023-01-08T05:46:42.198Z,1003.49
2023-01-08T05:47:42.051Z,1003.47
2023-01-08T05:48:42.028Z,1003.50
2023-01-08T05:49:41.986Z,1003.50
2023-01-08T05:50:41.961Z,1003.52
2023-01-08T05:51:41.996Z,1003.52
2023-01-08T05:52:41.878Z,1003.51
2023-01-08T05:53:41.852Z,1003.44
2023-01-08T05:54:41.811Z,1003.43
2023-01-08T05:55:41.786Z,1003.47
2023-01-08T05:56:41.742Z,1003.45
2023-01-08T05:57:41.776Z,1003.46
2023-01-08T05:58:41.678Z,1003.47
2023-01-08T05:59:41.710Z,1003.42
2023-01-08T06:00:41.674Z,1003.44
2023-01-08T06:01:41.697Z,1003.43
2023-01-08T06:02:41.628Z,1003.45
2023-01-08T06:03:41.557Z,1003.45
2023-01-08T06:04:41.579Z,1003.41
2023-01-08T06:05:41.434Z,1003.42
2023-01-08T06:06:41.406Z,1003.41
2023-01-08T06:07:41.360Z,1003.42
2023-01-08T06:08:41.383Z,1003.41
2023-01-08T06:09:41.296Z,1003.42
2023-01-08T06:10:41.321Z,1003.38
2023-01-08T06:11:41.230Z,1003.33
2023-01-08T06:12:41.199Z,1003.32
2023-01-08T06:13:41.301Z,1003.35
2023-01-08T06:14:41.201Z,1003.35
2023-01-08T06:15:41.234Z,1003.32
2023-01-08T06:16:41.068Z,1003.31
2023-01-08T06:17:41.023Z,1003.28
2023-01-08T06:18:40.991Z,1003.23
2023-01-08T06:19:41.016Z,1003.21
2023-01-08T06:20:40.919Z,1003.27
2023-01-08T06:21:40.887Z,1003.27
2023-01-08T06:22:40.849Z,1003.27
2023-01-08T06:23:40.811Z,1003.29
2023-01-08T06:24:40.841Z,1003.28
2023-01-08T06:25:40.751Z,1003.31
2023-01-08T06:26:40.711Z,1003.31
2023-01-08T06:27:40.836Z,1003.29
2023-01-08T06:28:40.641Z,1003.31
2023-01-08T06:29:40.710Z,1003.33
2023-01-08T06:30:40.576Z,1003.28
2023-01-08T06:31:40.702Z,1003.30
2023-01-08T06:32:40.511Z,1003.31
2023-01-08T06:33:40.479Z,1003.33
2023-01-08T06:34:40.449Z,1003.34
2023-01-08T06:35:40.479Z,1003.33
2023-01-08T06:36:40.371Z,1003.32
2023-01-08T06:37:40.334Z,1003.31
2023-01-08T06:38:40.304Z,1003.28
2023-01-08T06:39:40.305Z,1003.30
2023-01-08T06:40:40.246Z,1003.29
2023-01-08T06:41:40.273Z,1003.30
2023-01-08T06:42:40.165Z,1003.30
2023-01-08T06:43:40.188Z,1003.23
2023-01-08T06:44:40.109Z,1003.24
2023-01-08T06:45:40.065Z,1003.23
2023-01-08T06:46:40.108Z,1003.23
2023-01-08T06:47:40.118Z,1003.21
2023-01-08T06:48:40.029Z,1003.21
2023-01-08T06:49:39.930Z,1003.19
2023-01-08T06:50:39.900Z,1003.22
2023-01-08T06:51:39.881Z,1003.20
2023-01-08T06:52:39.821Z,1003.23
2023-01-08T06:53:39.808Z,1003.21
2023-01-08T06:54:39.816Z,1003.22
2023-01-08T06:55:39.743Z,1003.19
2023-01-08T06:56:52.603Z,1003.18
2023-01-08T06:57:39.686Z,1003.16
2023-01-08T06:58:39.613Z,1003.19
2023-01-08T06:59:39.597Z,1003.17
2023-01-08T07:00:39.609Z,1003.19
2023-01-08T07:01:39.733Z,1003.19
2023-01-08T07:02:39.629Z,1003.21
2023-01-08T07:03:39.657Z,1003.21
2023-01-08T07:04:39.440Z,1003.22
2023-01-08T07:05:39.394Z,1003.20
2023-01-08T07:06:39.418Z,1003.21
2023-01-08T07:07:39.309Z,1003.23
2023-01-08T07:08:39.277Z,1003.25
2023-01-08T07:09:39.243Z,1003.30
2023-01-08T07:10:39.206Z,1003.29
2023-01-08T07:11:39.175Z,1003.26
2023-01-08T07:12:39.207Z,1003.32
2023-01-08T07:13:39.151Z,1003.33
2023-01-08T07:14:39.187Z,1003.37
2023-01-08T07:15:39.058Z,1003.40
2023-01-08T07:16:39.055Z,1003.43
2023-01-08T07:17:38.965Z,1003.44
2023-01-08T07:18:38.988Z,1003.44
2023-01-08T07:19:39.004Z,1003.46
2023-01-08T07:20:38.867Z,1003.50
2023-01-08T07:21:38.902Z,1003.50
2023-01-08T07:22:38.791Z,1003.49
2023-01-08T07:23:38.758Z,1003.51
2023-01-08T07:24:38.727Z,1003.50
2023-01-08T07:25:38.725Z,1003.50
2023-01-08T07:26:38.741Z,1003.49
2023-01-08T07:27:38.777Z,1003.51
2023-01-08T07:28:38.598Z,1003.49
2023-01-08T07:29:38.568Z,1003.51
2023-01-08T07:30:38.538Z,1003.47
2023-01-08T07:31:38.541Z,1003.50
2023-01-08T07:32:38.448Z,1003.49
2023-01-08T07:33:38.496Z,1003.49
2023-01-08T07:34:38.386Z,1003.53
2023-01-08T07:35:38.418Z,1003.46
2023-01-08T07:36:38.315Z,1003.49
2023-01-08T07:37:38.274Z,1003.44
2023-01-08T07:38:38.244Z,1003.45
2023-01-08T07:39:38.721Z,1003.51
2023-01-08T07:40:39.497Z,1003.46
2023-01-08T07:41:38.136Z,1003.46
2023-01-08T07:42:38.100Z,1003.42
2023-01-08T07:43:38.076Z,1003.42
2023-01-08T07:44:38.070Z,1003.40
2023-01-08T07:45:38.073Z,1003.40
2023-01-08T07:46:38.073Z,1003.36
2023-01-08T07:47:37.933Z,1003.31
2023-01-08T07:48:37.898Z,1003.35
2023-01-08T07:49:37.866Z,1003.32
2023-01-08T07:50:38.750Z,1003.34
2023-01-08T07:51:37.939Z,1003.33
2023-01-08T07:52:37.765Z,1003.28
2023-01-08T07:53:37.731Z,1003.25
2023-01-08T07:54:37.695Z,1003.26
2023-01-08T07:55:37.732Z,1003.22
2023-01-08T07:56:37.632Z,1003.25
2023-01-08T07:57:37.602Z,1003.21
2023-01-08T07:58:37.565Z,1003.24
2023-01-08T07:59:37.523Z,1003.30
2023-01-08T08:00:37.514Z,1003.28
2023-01-08T08:01:37.711Z,1003.33
2023-01-08T08:02:37.481Z,1003.32
2023-01-08T08:03:37.458Z,1003.30
2023-01-08T08:04:37.347Z,1003.33
2023-01-08T08:05:37.318Z,1003.31
2023-01-08T08:06:37.281Z,1003.30
2023-01-08T08:07:37.386Z,1003.29
2023-01-08T08:08:37.221Z,1003.26
2023-01-08T08:09:37.186Z,1003.30
2023-01-08T08:10:37.141Z,1003.26
2023-01-08T08:11:37.104Z,1003.27
2023-01-08T08:12:37.078Z,1003.28
2023-01-08T08:13:37.104Z,1003.25
2023-01-08T08:14:37.015Z,1003.21
2023-01-08T08:15:36.966Z,1003.21
2023-01-08T08:16:36.936Z,1003.17
2023-01-08T08:17:36.909Z,1003.16
2023-01-08T08:18:36.866Z,1003.17
2023-01-08T08:19:36.931Z,1003.18
2023-01-08T08:20:36.812Z,1003.16
2023-01-08T08:21:36.774Z,1003.18
2023-01-08T08:22:36.734Z,1003.17
2023-01-08T08:23:37.088Z,1003.14
2023-01-08T08:24:36.664Z,1003.11
2023-01-08T08:25:36.699Z,1003.00
2023-01-08T08:26:36.602Z,1002.99
2023-01-08T08:27:36.553Z,1003.03
2023-01-08T08:28:36.529Z,1003.08
2023-01-08T08:29:37.107Z,1003.08
2023-01-08T08:30:36.458Z,1003.04
2023-01-08T08:31:36.589Z,1003.03
2023-01-08T08:32:36.384Z,1003.02
2023-01-08T08:33:36.350Z,1003.06
2023-01-08T08:34:36.319Z,1003.08
2023-01-08T08:35:36.325Z,1003.12
2023-01-08T08:36:36.244Z,1003.11
2023-01-08T08:37:36.253Z,1003.07
2023-01-08T08:38:36.180Z,1003.05
2023-01-08T08:39:36.223Z,1003.11
2023-01-08T08:40:36.112Z,1003.07
2023-01-08T08:41:36.079Z,1003.07
2023-01-08T08:42:36.052Z,1003.06
2023-01-08T08:43:36.054Z,1003.08
2023-01-08T08:44:35.975Z,1003.06
2023-01-08T08:45:35.942Z,1003.00
2023-01-08T08:46:35.987Z,1002.98
2023-01-08T08:47:35.908Z,1003.00
2023-01-08T08:48:35.834Z,1002.94
2023-01-08T08:49:35.872Z,1002.94
2023-01-08T08:50:35.770Z,1002.92
2023-01-08T08:51:35.738Z,1002.89
2023-01-08T08:52:35.706Z,1002.85
2023-01-08T08:53:35.677Z,1002.80
2023-01-08T08:54:35.631Z,1002.83
2023-01-08T08:55:35.728Z,1002.78
2023-01-08T08:56:35.558Z,1002.79
2023-01-08T08:57:35.549Z,1002.75
2023-01-08T08:58:35.543Z,1002.73
2023-01-08T08:59:35.471Z,1002.76
2023-01-08T09:00:35.434Z,1002.74
2023-01-08T09:01:35.612Z,1002.74
2023-01-08T09:02:35.491Z,1002.75
2023-01-08T09:03:35.429Z,1002.74
2023-01-08T09:04:35.348Z,1002.74
2023-01-08T09:05:35.320Z,1002.72
2023-01-08T09:06:35.227Z,1002.73
2023-01-08T09:07:35.255Z,1002.70
2023-01-08T09:08:35.167Z,1002.74
2023-01-08T09:09:35.123Z,1002.76
2023-01-08T09:10:35.092Z,1002.75
2023-01-08T09:11:35.127Z,1002.73
2023-01-08T09:12:35.020Z,1002.78
2023-01-08T09:13:35.091Z,1002.71
2023-01-08T09:14:34.957Z,1002.78
2023-01-08T09:15:34.917Z,1002.82
2023-01-08T09:16:35.023Z,1002.78
2023-01-08T09:17:34.846Z,1002.86
2023-01-08T09:18:34.842Z,1002.83
2023-01-08T09:19:34.830Z,1002.84
2023-01-08T09:20:34.750Z,1002.89
2023-01-08T09:21:34.716Z,1002.90
2023-01-08T09:22:34.676Z,1002.89
2023-01-08T09:23:34.653Z,1002.90
2023-01-08T09:24:34.616Z,1002.83
2023-01-08T09:25:34.637Z,1002.87
2023-01-08T09:26:34.548Z,1002.89
2023-01-08T09:27:34.611Z,1002.93
2023-01-08T09:28:34.473Z,1002.92
2023-01-08T09:29:34.434Z,1002.92
2023-01-08T09:30:34.422Z,1002.90
2023-01-08T09:31:34.527Z,1002.92
2023-01-08T09:32:34.343Z,1003.04
2023-01-08T09:33:34.334Z,1003.09
2023-01-08T09:34:34.292Z,1003.10
2023-01-08T09:35:34.249Z,1003.14
2023-01-08T09:36:34.280Z,1003.12
2023-01-08T09:37:34.163Z,1003.13
2023-01-08T09:38:34.156Z,1003.15
2023-01-08T09:39:34.101Z,1003.15
2023-01-08T09:40:34.069Z,1003.13
2023-01-08T09:41:34.048Z,1003.13
2023-01-08T09:42:34.062Z,1003.18
2023-01-08T09:43:34.032Z,1003.18
2023-01-08T09:44:33.992Z,1003.18
2023-01-08T09:45:33.968Z,1003.18
2023-01-08T09:46:33.925Z,1003.17
2023-01-08T09:47:33.828Z,1003.18
2023-01-08T09:48:33.796Z,1003.18
2023-01-08T09:49:33.765Z,1003.16
2023-01-08T09:50:33.720Z,1003.17
2023-01-08T09:51:33.742Z,1003.09
2023-01-08T09:52:33.653Z,1003.13
2023-01-08T09:53:33.626Z,1003.10
2023-01-08T09:54:33.633Z,1003.14
2023-01-08T09:55:33.552Z,1003.11
2023-01-08T09:56:33.520Z,1003.12
2023-01-08T09:57:33.562Z,1003.08
2023-01-08T09:58:33.459Z,1003.06
2023-01-08T09:59:33.507Z,1003.08
2023-01-08T10:00:33.415Z,1003.06
2023-01-08T10:01:33.415Z,1003.03
2023-01-08T10:02:33.474Z,1003.00
2023-01-08T10:03:33.340Z,1003.00
2023-01-08T10:04:33.245Z,1002.98
2023-01-08T10:05:33.219Z,1002.98
2023-01-08T10:06:33.226Z,1002.99
2023-01-08T10:07:33.202Z,1002.95
2023-01-08T10:08:33.114Z,1002.94
2023-01-08T10:09:33.790Z,1002.93
2023-01-08T10:10:33.076Z,1002.93
2023-01-08T10:11:33.040Z,1002.92
2023-01-08T10:12:32.988Z,1002.89
2023-01-08T10:13:32.970Z,1002.83
2023-01-08T10:14:32.910Z,1002.86
2023-01-08T10:15:32.959Z,1002.88
2023-01-08T10:16:33.005Z,1002.86
2023-01-08T10:17:32.864Z,1002.83
2023-01-08T10:18:32.781Z,1002.78
2023-01-08T10:19:32.819Z,1002.79
2023-01-08T10:20:32.775Z,1002.82
2023-01-08T10:21:32.669Z,1002.80
2023-01-08T10:22:32.645Z,1002.78
2023-01-08T10:23:32.623Z,1002.77
2023-01-08T10:24:32.582Z,1002.71
2023-01-08T10:25:32.536Z,1002.68
2023-01-08T10:26:32.585Z,1002.65
2023-01-08T10:27:32.482Z,1002.60
2023-01-08T10:28:32.459Z,1002.56
2023-01-08T10:29:32.413Z,1002.51
2023-01-08T10:30:32.388Z,1002.53
2023-01-08T10:31:32.464Z,1002.59
2023-01-08T10:32:32.383Z,1002.60
2023-01-08T10:33:32.303Z,1002.58
2023-01-08T10:34:32.233Z,1002.58
2023-01-08T10:35:32.207Z,1002.60
2023-01-08T10:36:32.186Z,1002.59
2023-01-08T10:37:32.148Z,1002.60
2023-01-08T10:38:33.409Z,1002.60
2023-01-08T10:39:32.066Z,1002.58
2023-01-08T10:40:32.092Z,1002.59
2023-01-08T10:41:32.002Z,1002.53
2023-01-08T10:42:31.984Z,1002.51
2023-01-08T10:43:31.933Z,1002.57
2023-01-08T10:44:32.037Z,1002.59
2023-01-08T10:45:31.880Z,1002.56
2023-01-08T10:46:31.848Z,1002.54
2023-01-08T10:47:31.871Z,1002.48
2023-01-08T10:48:31.782Z,1002.46
2023-01-08T10:49:31.774Z,1002.43
2023-01-08T10:50:31.825Z,1002.40
2023-01-08T10:51:31.681Z,1002.45
2023-01-08T10:52:31.673Z,1002.44
2023-01-08T10:53:31.601Z,1002.44
2023-01-08T10:54:31.617Z,1002.43
2023-01-08T10:55:31.580Z,1002.38
2023-01-08T10:56:31.577Z,1002.37
2023-01-08T10:57:31.465Z,1002.37
2023-01-08T10:58:31.457Z,1002.34
2023-01-08T10:59:31.441Z,1002.38
2023-01-08T11:00:31.451Z,1002.41
2023-01-08T11:01:31.401Z,1002.36
2023-01-08T11:02:31.425Z,1002.29
2023-01-08T11:03:31.375Z,1002.30
2023-01-08T11:04:31.239Z,1002.31
2023-01-08T11:05:31.212Z,1002.33
2023-01-08T11:06:31.171Z,1002.31
2023-01-08T11:07:31.125Z,1002.27
2023-01-08T11:08:31.182Z,1002.25
2023-01-08T11:09:31.080Z,1002.22
2023-01-08T11:10:31.059Z,1002.22
2023-01-08T11:11:31.019Z,1002.17
2023-01-08T11:12:30.968Z,1002.14
2023-01-08T11:13:31.039Z,1002.15
2023-01-08T11:14:30.936Z,1002.13
2023-01-08T11:15:30.865Z,1002.12
2023-01-08T11:16:30.901Z,1002.11
2023-01-08T11:17:30.838Z,1002.08
2023-01-08T11:18:30.782Z,1002.11
2023-01-08T11:19:30.805Z,1002.08
2023-01-08T11:20:30.753Z,1002.09
2023-01-08T11:21:30.678Z,1002.10
2023-01-08T11:22:30.672Z,1002.09
2023-01-08T11:23:30.612Z,1002.09
2023-01-08T11:24:30.656Z,1002.07
2023-01-08T11:25:30.537Z,1002.03
2023-01-08T11:26:30.632Z,1002.00
2023-01-08T11:27:30.543Z,1002.02
2023-01-08T11:28:30.488Z,1002.07
2023-01-08T11:29:30.503Z,1002.05
2023-01-08T11:30:30.425Z,1002.00
2023-01-08T11:31:30.364Z,1001.96
2023-01-08T11:32:30.310Z,1001.96
2023-01-08T11:33:30.308Z,1001.95
2023-01-08T11:34:30.260Z,1001.97
2023-01-08T11:35:30.273Z,1002.02
2023-01-08T11:36:30.221Z,1001.93
2023-01-08T11:37:30.138Z,1001.93
2023-01-08T11:38:30.134Z,1001.94
2023-01-08T11:39:30.081Z,1001.94
2023-01-08T11:40:30.116Z,1001.93
2023-01-08T11:41:30.028Z,1001.90
2023-01-08T11:42:29.996Z,1001.90
2023-01-08T11:43:29.976Z,1001.87
2023-01-08T11:44:29.975Z,1001.86
2023-01-08T11:45:29.942Z,1001.85
2023-01-08T11:46:29.856Z,1001.87
2023-01-08T11:47:29.811Z,1001.82
2023-01-08T11:48:29.835Z,1001.81
2023-01-08T11:49:29.810Z,1001.79
2023-01-08T11:50:29.718Z,1001.74
2023-01-08T11:51:29.688Z,1001.70
2023-01-08T11:52:29.647Z,1001.64
2023-01-08T11:53:29.625Z,1001.60
2023-01-08T11:54:29.583Z,1001.62
2023-01-08T11:55:29.617Z,1001.59
2023-01-08T11:56:29.522Z,1001.60
2023-01-08T11:57:29.479Z,1001.59
2023-01-08T11:58:29.449Z,1001.63
2023-01-08T11:59:29.417Z,1001.60
2023-01-08T12:00:29.385Z,1001.61
2023-01-08T12:01:29.443Z,1001.62
2023-01-08T12:02:29.350Z,1001.62
2023-01-08T12:03:29.445Z,1001.59
2023-01-08T12:04:29.259Z,1001.54
2023-01-08T12:05:29.236Z,1001.54